Webcam Weerstation Emmen Zuid-West Meer informatie Webcam Weerstation Emmen Zuid-West


Onweer radar Meer informatie blitzortung!


Regen radar  rain snow radar


Lokaal brand risico:
Gebaseerd op waardes van gisteren en vandaag
CBI


Regionaal brand risico: Meer informatie


Lokaal brand risico:
Gebaseerd op actuele waarde
CBI



Het weer levert geen direct gevaar op.    Er zijn geen waarschuwingen afgegeven.

METAR rapporten vliegvelden

   
ETWM - Meppen, Germany
Afstand tot: O 29 km
Gewijzigd: 16-07-2018 17:20
  
  
   Wind: Noorden 9.3 km/h
Wind: Noorden 9.3 km/h
Temperatuur: 28°C
Dauwpunt: 7°C
Vochtigheid: 26%
Barometer: 1012 hPa
Zicht: 5 km
ETWM 161520Z AUTO 35005KT 5000 // ////// 28/07 Q1012 ///
EHGG - Groningen/Eelde, Netherlands
Afstand tot: NNW 47 km
Gewijzigd: 16-07-2018 17:25
Helder  
Helder  
   Wind: NO 16.7 km/h
Wind: NO 16.7 km/h
Temperatuur: 27°C
Dauwpunt: 12°C
Vochtigheid: 39%
Barometer: 1013 hPa
Bewolking: Helder
Zicht: meer dan 10 km
Bewolking: Helder
EHGG 161525Z AUTO 05009KT 360V100 9999 NCD 27/12 Q1013 NOSIG
EDDG - Muenster/Osnabru, Germany
Afstand tot: ZO 87 km
Gewijzigd: 16-07-2018 17:50
Helder  
Helder  
   Wind: Noorden 14.8 km/h
Wind: Noorden 14.8 km/h
Temperatuur: 29°C
Dauwpunt: 9°C
Vochtigheid: 29%
Barometer: 1011 hPa
Zicht: meer dan 10 km
Bewolking: Helder
EDDG 161550Z 36008KT 330V050 CAVOK 29/09 Q1011 NOSIG
EHLW - Leeuwarden Rnlaf, Netherlands
Afstand tot: NW 93 km
Gewijzigd: 16-07-2018 17:55
Helder  
Helder  
   Wind: NO 25.9 km/h
Wind: NO 25.9 km/h
Temperatuur: 26°C
Dauwpunt: 16°C
Vochtigheid: 54%
Barometer: 1013 hPa
Bewolking: Helder
Zicht: meer dan 10 km
Bewolking: Helder
EHLW 161555Z AUTO 05014KT 010V100 9999 NCD 26/16 Q1013 BLU
ETNT - Wittmundhaven(Ga, Germany
Afstand tot: NNO 100 km
Gewijzigd: 16-07-2018 17:20
Licht bewolkt  
Licht bewolkt  
   Wind: NO 22.2 km/h
Wind: NO 22.2 km/h
Temperatuur: 26°C
Dauwpunt: 14°C
Vochtigheid: 48%
Barometer: 1013 hPa
Bewolking: Licht bewolkt
Zicht: meer dan 10 km
Bewolking: Licht bewolkt 5000 ft
ETNT 161520Z 04012KT 9999 FEW050 26/14 Q1013 BLU+FCST CANCEL
ETND - Diepholz (ger-Af, Germany
Afstand tot: O 104 km
Gewijzigd: 16-07-2018 15:20
Verouderd
Licht bewolkt  
Licht bewolkt  
   Wind: ONO 5.6 km/h
Wind: ONO 5.6 km/h
Temperatuur: 27°C
Dauwpunt: 8°C
Vochtigheid: 30%
Barometer: 1013 hPa
Bewolking: Licht bewolkt
Zicht: meer dan 10 km
Bewolking: Licht bewolkt 7000 ft
ETND 161320Z 06003KT 9999 FEW070 27/08 Q1013 BLU+
ETNT - Wittmundhaven(Ga, Germany
Afstand tot: NNO 102 km
Gewijzigd: 16-07-2018 17:20
Licht bewolkt  
Licht bewolkt  
   Wind: NO 22.2 km/h
Wind: NO 22.2 km/h
Temperatuur: 26°C
Dauwpunt: 14°C
Vochtigheid: 48%
Barometer: 1013 hPa
Bewolking: Licht bewolkt
Zicht: meer dan 10 km
Bewolking: Licht bewolkt 5000 ft
ETNT 161520Z 04012KT 9999 FEW050 26/14 Q1013 BLU+FCST CANCEL
EHDL - Deelen Rnlafb, Netherlands
Afstand tot: ZW 103 km
Gewijzigd: 16-07-2018 17:55
Bewolking  
Bewolking  
   Wind: NNW 5.6 km/h
Wind: NNW 5.6 km/h
Temperatuur: 30°C
Dauwpunt: 8°C
Vochtigheid: 25%
Barometer: 1011 hPa
Bewolking: Bewolking
Zicht: meer dan 10 km
Bewolking: Bewolking 25000 ft
EHDL 161555Z AUTO 34003KT 300V040 9999 OVC250 30/08 Q1011 BLU
EHMA - Awg-1 Sea, Netherlands
Afstand tot: NW 105 km
Gewijzigd: 16-07-2018 17:55
Gedeeltelijk bewolkt  
Gedeeltelijk bewolkt  
   Wind: ONO 22.2 km/h
Wind: ONO 22.2 km/h
Temperatuur: 27°C
Gevoelstemperatuur: 27°C
Dauwpunt: 16°C
Vochtigheid: 51%
Barometer: 1013 hPa
Bewolking: Gedeeltelijk bewolkt
Zicht: meer dan 10 km
Bewolking: Gedeeltelijk bewolkt
EHMA 161555Z AUTO 07012KT 010V130 9999 NSC 27/16 Q1013 W///H///
EDDW - Bremen, Germany
Afstand tot: ONO 135 km
Gewijzigd: 16-07-2018 17:50
Helder  
Helder  
   Wind: ONO 11.1 km/h
Wind: ONO 11.1 km/h
Temperatuur: 27°C
Dauwpunt: 11°C
Vochtigheid: 37%
Barometer: 1012 hPa
Zicht: meer dan 10 km
Bewolking: Helder
EDDW 161550Z 07006KT 030V100 CAVOK 27/11 Q1012 NOSIG
EHVL - Vlieland Island, Netherlands
Afstand tot: WNW 138 km
Gewijzigd: 16-07-2018 17:55
Helder  
Helder  
   Wind: Oosten 25.9 km/h
Wind: Oosten 25.9 km/h
Temperatuur: 25°C
Dauwpunt: 15°C
Vochtigheid: 54%
Barometer: 1013 hPa
Bewolking: Helder
Zicht: meer dan 10 km
Bewolking: Helder
EHVL 161555Z AUTO 08014KT 9999 NCD 25/15 Q1013 BLU
EDLV - Niederrhein, Germany
Afstand tot: ZZW 139 km
Gewijzigd: 16-07-2018 17:50
Helder  
Helder  
   Wind: varieert 7.4 km/h
Wind: varieert 7.4 km/h
Temperatuur: 31°C
Dauwpunt: 7°C
Vochtigheid: 22%
Barometer: 1011 hPa
Zicht: meer dan 10 km
Bewolking: Helder
EDLV 161550Z VRB04KT CAVOK 31/07 Q1011
EHKD - De Kooy (navy), Netherlands
Afstand tot: W 144 km
Gewijzigd: 16-07-2018 17:55
Grotendeels bewolkt  
Grotendeels bewolkt  
   Wind: NO 20.4 km/h
Wind: NO 20.4 km/h
Temperatuur: 26°C
Dauwpunt: 15°C
Vochtigheid: 51%
Barometer: 1012 hPa
Bewolking: Grotendeels bewolkt
Zicht: meer dan 10 km
Bewolking: Grotendeels bewolkt 26000 ft
EHKD 161555Z AUTO 05011KT 9999 BKN260 26/15 Q1012 BLU 07008KT CAVOK
EDLW - Dortmund/Wickede, Germany
Afstand tot: ZZO 150 km
Gewijzigd: 16-07-2018 17:50
Helder  
Helder  
   Wind: NNO 7.4 km/h
Wind: NNO 7.4 km/h
Temperatuur: 29°C
Dauwpunt: 7°C
Vochtigheid: 25%
Barometer: 1011 hPa
Zicht: meer dan 10 km
Bewolking: Helder
EDLW 161550Z 03004KT 320V130 CAVOK 29/07 Q1011
EHVK - Volkel Rnlafb, Netherlands
Afstand tot: ZZW 149 km
Gewijzigd: 16-07-2018 17:55
Bewolking  
Bewolking  
   Wind: varieert 7.4 km/h
Wind: varieert 7.4 km/h
Temperatuur: 30°C
Dauwpunt: 8°C
Vochtigheid: 25%
Barometer: 1011 hPa
Bewolking: Bewolking
Zicht: meer dan 10 km
Bewolking: Bewolking 24000 ft
EHVK 161555Z AUTO VRB04KT 9999 OVC240 30/08 Q1011 BLU
EDLW - Dortmund/Wickede, Germany
Afstand tot: ZZO 150 km
Gewijzigd: 16-07-2018 17:50
Helder  
Helder  
   Wind: NNO 7.4 km/h
Wind: NNO 7.4 km/h
Temperatuur: 29°C
Dauwpunt: 7°C
Vochtigheid: 25%
Barometer: 1011 hPa
Zicht: meer dan 10 km
Bewolking: Helder
EDLW 161550Z 03004KT 320V130 CAVOK 29/07 Q1011
EHMG - L9-Ff-1 Sea, Netherlands
Afstand tot: NW 155 km
Gewijzigd: 16-07-2018 17:55
Helder  
Helder  
   Wind: Oosten 35.2 km/h
Wind: Oosten 35.2 km/h
Temperatuur: 20°C
Dauwpunt: 16°C
Vochtigheid: 78%
Barometer: 1014 hPa
Bewolking: Helder
Zicht: meer dan 10 km
Bewolking: Helder
EHMG 161555Z AUTO 09019KT 9999 NCD 20/16 Q1014 W///H///
ETHB - Buckeburg(Ger-Ar, Germany
Afstand tot: OZO 161 km
Gewijzigd: 16-07-2018 17:20
Licht bewolkt  
Licht bewolkt  
   Wind: NO 13 km/h
Wind: NO 13 km/h
Temperatuur: 28°C
Dauwpunt: 12°C
Vochtigheid: 37%
Barometer: 1012 hPa
Bewolking: Licht bewolkt
Zicht: meer dan 10 km
Bewolking: Licht bewolkt 6000 ft
ETHB 161520Z 05007KT 9999 FEW060 28/12 Q1012 BLU+BLU+
ETMN - Nordholz (ger-Na, Germany
Afstand tot: NO 164 km
Gewijzigd: 16-07-2018 17:20
Licht bewolkt  
Licht bewolkt  
   Wind: NNO 20.4 km/h
Wind: NNO 20.4 km/h
Temperatuur: 25°C
Dauwpunt: 12°C
Vochtigheid: 44%
Barometer: 1013 hPa
Bewolking: Licht bewolkt
Zicht: meer dan 10 km
Bewolking: Licht bewolkt 5000 ft
ETMN 161520Z 02011KT 9999 FEW050 25/12 Q1013 BLU+BLU+
EDDL - Duesseldorf, Germany
Afstand tot: Z 165 km
Gewijzigd: 16-07-2018 17:50
Helder  
Helder  
   Wind: varieert 5.6 km/h
Wind: varieert 5.6 km/h
Temperatuur: 30°C
Dauwpunt: 7°C
Vochtigheid: 24%
Barometer: 1011 hPa
Zicht: meer dan 10 km
Bewolking: Helder
EDDL 161550Z VRB03KT CAVOK 30/07 Q1011 NOSIG
EDLN - Monchengladbach, Germany
Afstand tot: Z 174 km
Gewijzigd: 16-07-2018 17:50
Helder  
Helder  
   Wind: Noorden 13 km/h
Wind: Noorden 13 km/h
Temperatuur: 30°C
Dauwpunt: 6°C
Vochtigheid: 22%
Barometer: 1011 hPa
Zicht: meer dan 10 km
Bewolking: Helder
EDLN 161550Z 36007KT 290V040 CAVOK 30/06 Q1011

Script ontwikkeld door  Saratoga-weather.org Aangepast voor de template door  Weerstation Leuven

U vindt ons ook hier:

UK Metoffice

European Weather Network

WeatherCloud

Weather Underground

Benelux Weer Netwerk

AWEKAS

Citizen Weather Observer Program (CWOP)

HAMweather, WeatherForYou, PWS Weather

Wetterpage 24

Apparatuur in gebruik:

Weerstation
Davis VP2

Weerprogramma
Meteohub

Hardware
RaspberryPI, Wireless Weather Envoy, MeteoStick, Asus WL -330N3G

Leverancier
Weerhuisje.nl weerstations

Davis VP2

Meteohub

RaspberryPI, Wireless Weather Envoy, MeteoStick, Asus WL -330N3G

Weerhuisje.nl weerstations